sensor_id;sensor_type;location;lat;lon;timestamp;temperature;humidity
70107;DHT22;57473;37.508;15.080;2022-08-04T00:01:26;27.60;53.20
70107;DHT22;57473;37.508;15.080;2022-08-04T00:04:06;27.50;52.90
70107;DHT22;57473;37.508;15.080;2022-08-04T00:09:15;27.50;53.50
70107;DHT22;57473;37.508;15.080;2022-08-04T00:11:44;27.40;53.60
70107;DHT22;57473;37.508;15.080;2022-08-04T00:14:14;27.40;52.70
70107;DHT22;57473;37.508;15.080;2022-08-04T00:16:42;27.40;51.70
70107;DHT22;57473;37.508;15.080;2022-08-04T00:19:29;27.50;50.60
70107;DHT22;57473;37.508;15.080;2022-08-04T00:22:09;27.40;51.50
70107;DHT22;57473;37.508;15.080;2022-08-04T00:24:37;27.40;51.60
70107;DHT22;57473;37.508;15.080;2022-08-04T00:27:06;27.40;51.60
70107;DHT22;57473;37.508;15.080;2022-08-04T00:29:37;27.30;51.20
70107;DHT22;57473;37.508;15.080;2022-08-04T00:32:06;27.30;51.70
70107;DHT22;57473;37.508;15.080;2022-08-04T00:34:35;27.30;51.70
70107;DHT22;57473;37.508;15.080;2022-08-04T00:37:04;27.30;51.80
70107;DHT22;57473;37.508;15.080;2022-08-04T00:39:33;27.30;51.40
70107;DHT22;57473;37.508;15.080;2022-08-04T00:42:25;27.20;51.50
70107;DHT22;57473;37.508;15.080;2022-08-04T00:48:15;27.20;52.00
70107;DHT22;57473;37.508;15.080;2022-08-04T00:50:51;27.20;52.10
70107;DHT22;57473;37.508;15.080;2022-08-04T01:04:11;27.10;53.10
70107;DHT22;57473;37.508;15.080;2022-08-04T01:12:30;27.00;53.90
70107;DHT22;57473;37.508;15.080;2022-08-04T01:15:14;27.00;53.60
70107;DHT22;57473;37.508;15.080;2022-08-04T01:18:03;27.00;53.90
70107;DHT22;57473;37.508;15.080;2022-08-04T01:21:05;27.00;53.80
70107;DHT22;57473;37.508;15.080;2022-08-04T01:26:29;26.90;54.20
70107;DHT22;57473;37.508;15.080;2022-08-04T01:29:46;26.90;54.60
70107;DHT22;57473;37.508;15.080;2022-08-04T01:32:20;26.90;54.80
70107;DHT22;57473;37.508;15.080;2022-08-04T01:35:04;26.90;55.50
70107;DHT22;57473;37.508;15.080;2022-08-04T01:40:26;26.90;56.60
70107;DHT22;57473;37.508;15.080;2022-08-04T01:42:54;26.80;56.50
70107;DHT22;57473;37.508;15.080;2022-08-04T01:45:23;26.80;56.80
70107;DHT22;57473;37.508;15.080;2022-08-04T01:47:53;26.80;57.50
70107;DHT22;57473;37.508;15.080;2022-08-04T01:50:23;26.80;58.50
70107;DHT22;57473;37.508;15.080;2022-08-04T01:52:53;26.80;59.00
70107;DHT22;57473;37.508;15.080;2022-08-04T01:55:21;26.70;59.80
70107;DHT22;57473;37.508;15.080;2022-08-04T01:57:50;26.70;61.10
70107;DHT22;57473;37.508;15.080;2022-08-04T02:00:21;26.80;61.30
70107;DHT22;57473;37.508;15.080;2022-08-04T02:02:49;26.80;61.30
70107;DHT22;57473;37.508;15.080;2022-08-04T02:05:19;26.80;61.60
70107;DHT22;57473;37.508;15.080;2022-08-04T02:10:52;26.70;61.70
70107;DHT22;57473;37.508;15.080;2022-08-04T02:13:32;26.60;61.70
70107;DHT22;57473;37.508;15.080;2022-08-04T02:21:12;26.50;61.90
70107;DHT22;57473;37.508;15.080;2022-08-04T02:23:40;26.50;62.00
70107;DHT22;57473;37.508;15.080;2022-08-04T02:26:19;26.50;62.20
70107;DHT22;57473;37.508;15.080;2022-08-04T02:34:24;26.40;61.50
70107;DHT22;57473;37.508;15.080;2022-08-04T02:36:55;26.40;61.80
70107;DHT22;57473;37.508;15.080;2022-08-04T02:39:27;26.40;61.80
70107;DHT22;57473;37.508;15.080;2022-08-04T02:42:14;26.50;61.50
70107;DHT22;57473;37.508;15.080;2022-08-04T02:44:42;26.50;61.10
70107;DHT22;57473;37.508;15.080;2022-08-04T02:47:18;26.50;61.10
70107;DHT22;57473;37.508;15.080;2022-08-04T02:49:46;26.50;61.20
70107;DHT22;57473;37.508;15.080;2022-08-04T02:52:18;26.40;61.50
70107;DHT22;57473;37.508;15.080;2022-08-04T02:54:48;26.40;61.30
70107;DHT22;57473;37.508;15.080;2022-08-04T02:57:17;26.40;60.10
70107;DHT22;57473;37.508;15.080;2022-08-04T03:05:21;26.40;58.00
70107;DHT22;57473;37.508;15.080;2022-08-04T03:13:54;26.30;55.90
70107;DHT22;57473;37.508;15.080;2022-08-04T03:25:14;26.30;54.50
70107;DHT22;57473;37.508;15.080;2022-08-04T03:31:05;26.20;54.30
70107;DHT22;57473;37.508;15.080;2022-08-04T03:37:59;26.20;54.20
70107;DHT22;57473;37.508;15.080;2022-08-04T04:02:49;26.10;55.20
70107;DHT22;57473;37.508;15.080;2022-08-04T04:53:28;26.70;54.50
70107;DHT22;57473;37.508;15.080;2022-08-04T04:56:15;26.80;54.00
70107;DHT22;57473;37.508;15.080;2022-08-04T04:58:45;26.80;54.40
70107;DHT22;57473;37.508;15.080;2022-08-04T05:13:33;27.20;52.50
70107;DHT22;57473;37.508;15.080;2022-08-04T05:16:31;27.20;52.40
70107;DHT22;57473;37.508;15.080;2022-08-04T05:19:11;27.30;51.90
70107;DHT22;57473;37.508;15.080;2022-08-04T05:21:47;27.40;52.10
70107;DHT22;57473;37.508;15.080;2022-08-04T05:24:20;27.50;51.90
70107;DHT22;57473;37.508;15.080;2022-08-04T05:26:55;27.60;51.50
70107;DHT22;57473;37.508;15.080;2022-08-04T05:29:35;27.70;51.30
70107;DHT22;57473;37.508;15.080;2022-08-04T05:32:10;27.70;51.50
70107;DHT22;57473;37.508;15.080;2022-08-04T05:34:42;27.80;51.00
70107;DHT22;57473;37.508;15.080;2022-08-04T05:37:18;27.90;51.10
70107;DHT22;57473;37.508;15.080;2022-08-04T05:39:54;28.00;51.00
70107;DHT22;57473;37.508;15.080;2022-08-04T05:42:23;28.10;51.00
70107;DHT22;57473;37.508;15.080;2022-08-04T05:44:51;28.20;50.90
70107;DHT22;57473;37.508;15.080;2022-08-04T05:47:20;28.20;50.70
70107;DHT22;57473;37.508;15.080;2022-08-04T05:49:48;28.30;50.70
70107;DHT22;57473;37.508;15.080;2022-08-04T05:52:29;28.40;50.80
70107;DHT22;57473;37.508;15.080;2022-08-04T05:54:58;28.50;50.60
70107;DHT22;57473;37.508;15.080;2022-08-04T05:57:27;28.60;50.70
70107;DHT22;57473;37.508;15.080;2022-08-04T05:59:57;28.60;50.30
70107;DHT22;57473;37.508;15.080;2022-08-04T06:02:27;28.70;50.70
70107;DHT22;57473;37.508;15.080;2022-08-04T06:04:56;28.80;50.40
70107;DHT22;57473;37.508;15.080;2022-08-04T06:07:25;28.90;50.90
70107;DHT22;57473;37.508;15.080;2022-08-04T06:09:53;29.00;51.80
70107;DHT22;57473;37.508;15.080;2022-08-04T06:12:34;29.00;51.90
70107;DHT22;57473;37.508;15.080;2022-08-04T06:15:05;29.10;51.70
70107;DHT22;57473;37.508;15.080;2022-08-04T06:17:39;29.10;51.40
70107;DHT22;57473;37.508;15.080;2022-08-04T06:20:33;29.20;52.00
70107;DHT22;57473;37.508;15.080;2022-08-04T06:23:18;29.20;52.10
70107;DHT22;57473;37.508;15.080;2022-08-04T06:25:49;29.30;52.10
70107;DHT22;57473;37.508;15.080;2022-08-04T06:28:18;29.40;51.90
70107;DHT22;57473;37.508;15.080;2022-08-04T06:30:47;29.50;51.80
70107;DHT22;57473;37.508;15.080;2022-08-04T06:33:17;29.60;51.70
70107;DHT22;57473;37.508;15.080;2022-08-04T06:36:19;29.70;51.10
70107;DHT22;57473;37.508;15.080;2022-08-04T06:38:47;29.80;50.60
70107;DHT22;57473;37.508;15.080;2022-08-04T06:41:25;30.00;50.20
70107;DHT22;57473;37.508;15.080;2022-08-04T06:43:53;30.10;50.00
70107;DHT22;57473;37.508;15.080;2022-08-04T06:46:21;30.30;49.70
70107;DHT22;57473;37.508;15.080;2022-08-04T06:48:49;30.40;49.10
70107;DHT22;57473;37.508;15.080;2022-08-04T06:51:17;30.50;48.60
70107;DHT22;57473;37.508;15.080;2022-08-04T06:53:59;30.60;48.00
70107;DHT22;57473;37.508;15.080;2022-08-04T06:56:26;30.60;47.50
70107;DHT22;57473;37.508;15.080;2022-08-04T06:58:57;30.60;47.50
70107;DHT22;57473;37.508;15.080;2022-08-04T07:01:26;30.70;47.30
70107;DHT22;57473;37.508;15.080;2022-08-04T07:03:54;31.10;47.50
70107;DHT22;57473;37.508;15.080;2022-08-04T07:06:22;31.40;46.50
70107;DHT22;57473;37.508;15.080;2022-08-04T07:08:51;31.60;46.20
70107;DHT22;57473;37.508;15.080;2022-08-04T07:11:19;31.80;46.30
70107;DHT22;57473;37.508;15.080;2022-08-04T07:13:47;31.90;45.30
70107;DHT22;57473;37.508;15.080;2022-08-04T07:16:17;31.80;45.20
70107;DHT22;57473;37.508;15.080;2022-08-04T07:18:56;31.70;46.20
70107;DHT22;57473;37.508;15.080;2022-08-04T07:21:36;31.60;45.80
70107;DHT22;57473;37.508;15.080;2022-08-04T07:24:05;31.70;46.50
70107;DHT22;57473;37.508;15.080;2022-08-04T07:26:32;31.70;46.80
70107;DHT22;57473;37.508;15.080;2022-08-04T07:29:01;31.80;47.00
70107;DHT22;57473;37.508;15.080;2022-08-04T07:31:29;31.80;47.00
70107;DHT22;57473;37.508;15.080;2022-08-04T07:34:04;32.00;46.90
70107;DHT22;57473;37.508;15.080;2022-08-04T07:36:49;32.10;45.90
70107;DHT22;57473;37.508;15.080;2022-08-04T07:39:23;32.10;45.30
70107;DHT22;57473;37.508;15.080;2022-08-04T07:41:57;32.00;44.40
70107;DHT22;57473;37.508;15.080;2022-08-04T07:44:27;32.10;44.50
70107;DHT22;57473;37.508;15.080;2022-08-04T07:46:56;32.00;44.30
70107;DHT22;57473;37.508;15.080;2022-08-04T07:49:23;32.20;44.60
70107;DHT22;57473;37.508;15.080;2022-08-04T07:52:12;32.30;44.00
70107;DHT22;57473;37.508;15.080;2022-08-04T07:54:41;32.30;43.10
70107;DHT22;57473;37.508;15.080;2022-08-04T07:57:08;32.40;43.60
70107;DHT22;57473;37.508;15.080;2022-08-04T07:59:56;32.50;43.70
70107;DHT22;57473;37.508;15.080;2022-08-04T08:02:23;32.40;43.90
70107;DHT22;57473;37.508;15.080;2022-08-04T08:04:51;32.50;44.20
70107;DHT22;57473;37.508;15.080;2022-08-04T08:07:19;32.60;41.90
70107;DHT22;57473;37.508;15.080;2022-08-04T08:09:47;32.60;42.80
70107;DHT22;57473;37.508;15.080;2022-08-04T08:12:15;32.60;42.70
70107;DHT22;57473;37.508;15.080;2022-08-04T08:15:04;32.40;43.00
70107;DHT22;57473;37.508;15.080;2022-08-04T08:17:34;32.50;43.00
70107;DHT22;57473;37.508;15.080;2022-08-04T08:20:21;32.60;42.00
70107;DHT22;57473;37.508;15.080;2022-08-04T08:22:55;32.50;40.20
70107;DHT22;57473;37.508;15.080;2022-08-04T08:25:23;32.50;41.40
70107;DHT22;57473;37.508;15.080;2022-08-04T08:27:51;32.40;42.00
70107;DHT22;57473;37.508;15.080;2022-08-04T08:30:23;32.30;40.90
70107;DHT22;57473;37.508;15.080;2022-08-04T08:33:04;32.40;42.50
70107;DHT22;57473;37.508;15.080;2022-08-04T08:35:59;32.50;41.90
70107;DHT22;57473;37.508;15.080;2022-08-04T08:38:54;32.50;42.50
70107;DHT22;57473;37.508;15.080;2022-08-04T08:56:24;32.90;41.90
70107;DHT22;57473;37.508;15.080;2022-08-04T09:11:15;32.80;40.10
70107;DHT22;57473;37.508;15.080;2022-08-04T09:13:52;32.80;41.10
70107;DHT22;57473;37.508;15.080;2022-08-04T09:16:41;32.70;39.00
70107;DHT22;57473;37.508;15.080;2022-08-04T09:19:39;32.70;38.90
70107;DHT22;57473;37.508;15.080;2022-08-04T09:22:33;32.70;40.70
70107;DHT22;57473;37.508;15.080;2022-08-04T09:27:49;32.80;40.60
70107;DHT22;57473;37.508;15.080;2022-08-04T09:30:20;33.00;39.80
70107;DHT22;57473;37.508;15.080;2022-08-04T09:35:39;32.80;39.10
70107;DHT22;57473;37.508;15.080;2022-08-04T09:38:19;32.90;39.00
70107;DHT22;57473;37.508;15.080;2022-08-04T09:41:02;32.90;38.50
70107;DHT22;57473;37.508;15.080;2022-08-04T09:47:08;33.20;37.00
70107;DHT22;57473;37.508;15.080;2022-08-04T09:50:03;33.20;36.90
70107;DHT22;57473;37.508;15.080;2022-08-04T09:52:56;33.30;36.50
70107;DHT22;57473;37.508;15.080;2022-08-04T09:55:59;33.40;35.80
70107;DHT22;57473;37.508;15.080;2022-08-04T10:01:29;33.10;38.30
70107;DHT22;57473;37.508;15.080;2022-08-04T10:04:05;33.10;39.30
70107;DHT22;57473;37.508;15.080;2022-08-04T10:12:45;33.20;42.10
70107;DHT22;57473;37.508;15.080;2022-08-04T10:20:47;33.40;40.30
70107;DHT22;57473;37.508;15.080;2022-08-04T10:26:33;33.30;38.90
70107;DHT22;57473;37.508;15.080;2022-08-04T10:29:27;33.60;38.50
70107;DHT22;57473;37.508;15.080;2022-08-04T10:32:03;33.90;39.80
70107;DHT22;57473;37.508;15.080;2022-08-04T10:34:43;34.20;40.80
70107;DHT22;57473;37.508;15.080;2022-08-04T10:37:18;34.40;39.30
70107;DHT22;57473;37.508;15.080;2022-08-04T10:40:13;34.10;40.70
70107;DHT22;57473;37.508;15.080;2022-08-04T10:43:38;33.90;39.80
70107;DHT22;57473;37.508;15.080;2022-08-04T10:46:23;34.00;41.40
70107;DHT22;57473;37.508;15.080;2022-08-04T10:49:03;34.10;41.50
70107;DHT22;57473;37.508;15.080;2022-08-04T10:51:44;34.10;40.80
70107;DHT22;57473;37.508;15.080;2022-08-04T10:57:07;34.20;40.90
70107;DHT22;57473;37.508;15.080;2022-08-04T11:05:19;34.60;41.20
70107;DHT22;57473;37.508;15.080;2022-08-04T11:07:54;34.60;40.70
70107;DHT22;57473;37.508;15.080;2022-08-04T11:10:24;34.40;39.90
70107;DHT22;57473;37.508;15.080;2022-08-04T11:13:02;34.90;41.00
70107;DHT22;57473;37.508;15.080;2022-08-04T11:15:38;34.80;39.20
70107;DHT22;57473;37.508;15.080;2022-08-04T11:18:18;34.70;40.50
70107;DHT22;57473;37.508;15.080;2022-08-04T11:21:00;34.40;38.50
70107;DHT22;57473;37.508;15.080;2022-08-04T11:23:33;34.00;41.70
70107;DHT22;57473;37.508;15.080;2022-08-04T11:29:00;34.40;42.50
70107;DHT22;57473;37.508;15.080;2022-08-04T11:31:42;34.40;42.10
70107;DHT22;57473;37.508;15.080;2022-08-04T11:39:37;33.90;42.30
70107;DHT22;57473;37.508;15.080;2022-08-04T11:45:04;34.20;42.10
70107;DHT22;57473;37.508;15.080;2022-08-04T11:47:47;34.00;43.10
70107;DHT22;57473;37.508;15.080;2022-08-04T11:50:49;33.90;43.20
70107;DHT22;57473;37.508;15.080;2022-08-04T11:53:22;33.30;43.90
70107;DHT22;57473;37.508;15.080;2022-08-04T11:55:53;33.20;44.80
70107;DHT22;57473;37.508;15.080;2022-08-04T11:58:34;33.20;45.70
70107;DHT22;57473;37.508;15.080;2022-08-04T12:01:29;34.00;44.80
70107;DHT22;57473;37.508;15.080;2022-08-04T12:04:11;34.80;43.50
70107;DHT22;57473;37.508;15.080;2022-08-04T12:06:59;34.90;43.40
70107;DHT22;57473;37.508;15.080;2022-08-04T12:15:56;35.50;43.10
70107;DHT22;57473;37.508;15.080;2022-08-04T12:18:33;35.60;43.30
70107;DHT22;57473;37.508;15.080;2022-08-04T12:21:08;35.30;44.30
70107;DHT22;57473;37.508;15.080;2022-08-04T12:23:42;34.70;45.00
70107;DHT22;57473;37.508;15.080;2022-08-04T12:26:14;34.80;43.60
70107;DHT22;57473;37.508;15.080;2022-08-04T12:28:46;34.80;44.80
70107;DHT22;57473;37.508;15.080;2022-08-04T12:31:35;34.60;45.60
70107;DHT22;57473;37.508;15.080;2022-08-04T12:34:47;34.70;46.10
70107;DHT22;57473;37.508;15.080;2022-08-04T12:39:52;34.20;47.50
70107;DHT22;57473;37.508;15.080;2022-08-04T12:43:02;34.40;46.50
70107;DHT22;57473;37.508;15.080;2022-08-04T12:45:32;34.20;47.20
70107;DHT22;57473;37.508;15.080;2022-08-04T12:48:01;34.00;49.20
70107;DHT22;57473;37.508;15.080;2022-08-04T12:50:31;33.80;49.50
70107;DHT22;57473;37.508;15.080;2022-08-04T12:52:58;33.60;50.00
70107;DHT22;57473;37.508;15.080;2022-08-04T12:55:30;33.40;50.60
70107;DHT22;57473;37.508;15.080;2022-08-04T12:58:01;33.20;52.00
70107;DHT22;57473;37.508;15.080;2022-08-04T13:00:34;33.00;53.30
70107;DHT22;57473;37.508;15.080;2022-08-04T13:03:12;32.50;54.80
70107;DHT22;57473;37.508;15.080;2022-08-04T13:05:41;32.50;54.80
70107;DHT22;57473;37.508;15.080;2022-08-04T13:08:12;32.70;54.10
70107;DHT22;57473;37.508;15.080;2022-08-04T13:10:46;32.70;54.50
70107;DHT22;57473;37.508;15.080;2022-08-04T13:13:21;32.60;54.10
70107;DHT22;57473;37.508;15.080;2022-08-04T13:16:02;32.60;53.90
70107;DHT22;57473;37.508;15.080;2022-08-04T13:18:37;32.40;54.40
70107;DHT22;57473;37.508;15.080;2022-08-04T13:21:19;32.20;55.40
70107;DHT22;57473;37.508;15.080;2022-08-04T13:24:11;32.00;54.60
70107;DHT22;57473;37.508;15.080;2022-08-04T13:27:09;32.10;53.90
70107;DHT22;57473;37.508;15.080;2022-08-04T13:29:43;31.90;53.40
70107;DHT22;57473;37.508;15.080;2022-08-04T13:32:27;32.00;52.70
70107;DHT22;57473;37.508;15.080;2022-08-04T13:34:56;31.80;53.70
70107;DHT22;57473;37.508;15.080;2022-08-04T13:37:32;31.50;54.40
70107;DHT22;57473;37.508;15.080;2022-08-04T13:40:08;31.40;54.40
70107;DHT22;57473;37.508;15.080;2022-08-04T13:42:39;31.50;54.90
70107;DHT22;57473;37.508;15.080;2022-08-04T13:45:12;31.60;53.80
70107;DHT22;57473;37.508;15.080;2022-08-04T13:47:41;31.70;53.80
70107;DHT22;57473;37.508;15.080;2022-08-04T13:50:24;32.00;53.00
70107;DHT22;57473;37.508;15.080;2022-08-04T13:52:56;32.40;52.10
70107;DHT22;57473;37.508;15.080;2022-08-04T13:55:30;32.40;49.70
70107;DHT22;57473;37.508;15.080;2022-08-04T13:58:10;32.40;49.80
70107;DHT22;57473;37.508;15.080;2022-08-04T14:03:23;32.60;48.50
70107;DHT22;57473;37.508;15.080;2022-08-04T14:06:13;33.30;48.80
70107;DHT22;57473;37.508;15.080;2022-08-04T14:09:14;33.00;49.90
70107;DHT22;57473;37.508;15.080;2022-08-04T14:11:45;33.10;50.40
70107;DHT22;57473;37.508;15.080;2022-08-04T14:14:34;33.60;50.30
70107;DHT22;57473;37.508;15.080;2022-08-04T14:19:50;34.10;49.00
70107;DHT22;57473;37.508;15.080;2022-08-04T14:25:05;34.80;48.90
70107;DHT22;57473;37.508;15.080;2022-08-04T14:27:42;34.00;50.70
70107;DHT22;57473;37.508;15.080;2022-08-04T14:30:27;33.40;52.20
70107;DHT22;57473;37.508;15.080;2022-08-04T14:33:01;32.80;53.80
70107;DHT22;57473;37.508;15.080;2022-08-04T14:35:58;32.40;55.60
70107;DHT22;57473;37.508;15.080;2022-08-04T14:41:10;32.30;56.10
70107;DHT22;57473;37.508;15.080;2022-08-04T14:43:46;32.20;56.30
70107;DHT22;57473;37.508;15.080;2022-08-04T14:46:15;32.10;56.70
70107;DHT22;57473;37.508;15.080;2022-08-04T14:49:08;31.70;57.50
70107;DHT22;57473;37.508;15.080;2022-08-04T14:51:44;31.60;58.00
70107;DHT22;57473;37.508;15.080;2022-08-04T14:54:13;31.50;58.40
70107;DHT22;57473;37.508;15.080;2022-08-04T14:56:53;31.40;58.40
70107;DHT22;57473;37.508;15.080;2022-08-04T14:59:22;31.30;58.10
70107;DHT22;57473;37.508;15.080;2022-08-04T15:01:51;31.20;58.30
70107;DHT22;57473;37.508;15.080;2022-08-04T15:04:28;30.90;59.10
70107;DHT22;57473;37.508;15.080;2022-08-04T15:06:56;30.80;59.70
70107;DHT22;57473;37.508;15.080;2022-08-04T15:09:32;30.50;60.60
70107;DHT22;57473;37.508;15.080;2022-08-04T15:12:00;30.40;60.80
70107;DHT22;57473;37.508;15.080;2022-08-04T15:14:28;30.40;60.90
70107;DHT22;57473;37.508;15.080;2022-08-04T15:17:04;30.30;60.70
70107;DHT22;57473;37.508;15.080;2022-08-04T15:19:54;30.40;60.80
70107;DHT22;57473;37.508;15.080;2022-08-04T15:22:22;30.40;60.50
70107;DHT22;57473;37.508;15.080;2022-08-04T15:24:50;30.30;60.80
70107;DHT22;57473;37.508;15.080;2022-08-04T15:27:25;30.40;59.90
70107;DHT22;57473;37.508;15.080;2022-08-04T15:29:56;30.50;58.90
70107;DHT22;57473;37.508;15.080;2022-08-04T15:32:33;30.70;56.40
70107;DHT22;57473;37.508;15.080;2022-08-04T15:35:11;30.70;56.00
70107;DHT22;57473;37.508;15.080;2022-08-04T15:40:51;30.70;54.10
70107;DHT22;57473;37.508;15.080;2022-08-04T15:43:45;30.90;54.90
70107;DHT22;57473;37.508;15.080;2022-08-04T15:49:29;31.10;53.50
70107;DHT22;57473;37.508;15.080;2022-08-04T15:52:02;31.20;53.30
70107;DHT22;57473;37.508;15.080;2022-08-04T15:54:38;31.30;52.70
70107;DHT22;57473;37.508;15.080;2022-08-04T15:57:09;31.30;52.60
70107;DHT22;57473;37.508;15.080;2022-08-04T16:07:54;31.20;50.20
70107;DHT22;57473;37.508;15.080;2022-08-04T16:12:58;31.30;51.60
70107;DHT22;57473;37.508;15.080;2022-08-04T16:18:08;31.40;51.70
70107;DHT22;57473;37.508;15.080;2022-08-04T16:20:57;31.40;50.10
70107;DHT22;57473;37.508;15.080;2022-08-04T16:35:03;31.70;44.60
70107;DHT22;57473;37.508;15.080;2022-08-04T16:37:41;31.80;44.20
70107;DHT22;57473;37.508;15.080;2022-08-04T16:40:29;31.80;44.30
70107;DHT22;57473;37.508;15.080;2022-08-04T16:43:10;31.80;44.80
70107;DHT22;57473;37.508;15.080;2022-08-04T16:46:03;31.80;45.10
70107;DHT22;57473;37.508;15.080;2022-08-04T16:49:04;31.70;44.60
70107;DHT22;57473;37.508;15.080;2022-08-04T16:51:32;31.70;44.40
70107;DHT22;57473;37.508;15.080;2022-08-04T16:54:02;31.70;44.90
70107;DHT22;57473;37.508;15.080;2022-08-04T16:56:32;31.70;44.60
70107;DHT22;57473;37.508;15.080;2022-08-04T16:59:09;31.60;44.40
70107;DHT22;57473;37.508;15.080;2022-08-04T17:01:46;31.60;43.30
70107;DHT22;57473;37.508;15.080;2022-08-04T17:04:15;31.50;43.30
70107;DHT22;57473;37.508;15.080;2022-08-04T17:06:44;31.50;43.60
70107;DHT22;57473;37.508;15.080;2022-08-04T17:09:14;31.50;43.90
70107;DHT22;57473;37.508;15.080;2022-08-04T17:11:43;31.50;44.40
70107;DHT22;57473;37.508;15.080;2022-08-04T17:14:12;31.50;44.40
70107;DHT22;57473;37.508;15.080;2022-08-04T17:16:41;31.40;44.70
70107;DHT22;57473;37.508;15.080;2022-08-04T17:19:09;31.30;45.10
70107;DHT22;57473;37.508;15.080;2022-08-04T17:22:00;31.20;45.20
70107;DHT22;57473;37.508;15.080;2022-08-04T17:24:36;31.20;45.50
70107;DHT22;57473;37.508;15.080;2022-08-04T17:27:05;31.10;45.50
70107;DHT22;57473;37.508;15.080;2022-08-04T17:29:53;31.10;45.50
70107;DHT22;57473;37.508;15.080;2022-08-04T17:32:20;31.00;45.60
70107;DHT22;57473;37.508;15.080;2022-08-04T17:34:52;30.90;45.50
70107;DHT22;57473;37.508;15.080;2022-08-04T17:37:20;30.90;45.40
70107;DHT22;57473;37.508;15.080;2022-08-04T17:40:11;30.90;45.20
70107;DHT22;57473;37.508;15.080;2022-08-04T17:42:44;30.90;45.50
70107;DHT22;57473;37.508;15.080;2022-08-04T17:45:18;30.90;45.00
70107;DHT22;57473;37.508;15.080;2022-08-04T17:48:20;30.90;45.30
70107;DHT22;57473;37.508;15.080;2022-08-04T17:50:50;30.70;46.30
70107;DHT22;57473;37.508;15.080;2022-08-04T17:53:31;30.60;46.90
70107;DHT22;57473;37.508;15.080;2022-08-04T17:56:33;30.50;47.20
70107;DHT22;57473;37.508;15.080;2022-08-04T18:02:06;30.20;47.90
70107;DHT22;57473;37.508;15.080;2022-08-04T18:04:51;30.10;48.20
70107;DHT22;57473;37.508;15.080;2022-08-04T18:07:42;30.00;48.10
70107;DHT22;57473;37.508;15.080;2022-08-04T18:10:41;30.00;48.30
70107;DHT22;57473;37.508;15.080;2022-08-04T18:13:26;29.90;48.60
70107;DHT22;57473;37.508;15.080;2022-08-04T18:16:03;29.80;48.70
70107;DHT22;57473;37.508;15.080;2022-08-04T18:18:31;29.70;48.90
70107;DHT22;57473;37.508;15.080;2022-08-04T18:20:59;29.60;49.10
70107;DHT22;57473;37.508;15.080;2022-08-04T18:23:31;29.60;49.20
70107;DHT22;57473;37.508;15.080;2022-08-04T18:26:00;29.60;49.50
70107;DHT22;57473;37.508;15.080;2022-08-04T18:28:30;29.50;49.60
70107;DHT22;57473;37.508;15.080;2022-08-04T18:31:00;29.40;49.90
70107;DHT22;57473;37.508;15.080;2022-08-04T18:33:28;29.40;50.10
70107;DHT22;57473;37.508;15.080;2022-08-04T18:36:10;29.40;50.20
70107;DHT22;57473;37.508;15.080;2022-08-04T18:38:59;29.40;50.40
70107;DHT22;57473;37.508;15.080;2022-08-04T18:41:45;29.30;50.70
70107;DHT22;57473;37.508;15.080;2022-08-04T18:44:31;29.20;50.70
70107;DHT22;57473;37.508;15.080;2022-08-04T18:47:18;29.20;50.90
70107;DHT22;57473;37.508;15.080;2022-08-04T18:50:06;29.10;51.20
70107;DHT22;57473;37.508;15.080;2022-08-04T18:52:56;29.10;51.30
70107;DHT22;57473;37.508;15.080;2022-08-04T18:55:25;29.10;51.40
70107;DHT22;57473;37.508;15.080;2022-08-04T18:58:12;29.10;51.50
70107;DHT22;57473;37.508;15.080;2022-08-04T19:00:54;29.00;51.70
70107;DHT22;57473;37.508;15.080;2022-08-04T19:03:27;29.00;51.80
70107;DHT22;57473;37.508;15.080;2022-08-04T19:05:56;29.00;51.70
70107;DHT22;57473;37.508;15.080;2022-08-04T19:08:24;29.00;51.60
70107;DHT22;57473;37.508;15.080;2022-08-04T19:11:02;29.00;51.70
70107;DHT22;57473;37.508;15.080;2022-08-04T19:13:51;29.00;51.70
70107;DHT22;57473;37.508;15.080;2022-08-04T19:16:26;28.90;51.80
70107;DHT22;57473;37.508;15.080;2022-08-04T19:18:57;28.90;51.80
70107;DHT22;57473;37.508;15.080;2022-08-04T19:21:27;28.90;51.90
70107;DHT22;57473;37.508;15.080;2022-08-04T19:24:15;28.90;52.00
70107;DHT22;57473;37.508;15.080;2022-08-04T19:27:03;28.90;52.10
70107;DHT22;57473;37.508;15.080;2022-08-04T19:29:35;28.90;52.20
70107;DHT22;57473;37.508;15.080;2022-08-04T19:32:11;28.90;52.20
70107;DHT22;57473;37.508;15.080;2022-08-04T19:34:45;28.90;52.10
70107;DHT22;57473;37.508;15.080;2022-08-04T19:37:16;28.80;52.30
70107;DHT22;57473;37.508;15.080;2022-08-04T19:40:08;28.80;52.30
70107;DHT22;57473;37.508;15.080;2022-08-04T19:42:41;28.80;52.40
70107;DHT22;57473;37.508;15.080;2022-08-04T19:45:24;28.80;52.30
70107;DHT22;57473;37.508;15.080;2022-08-04T19:48:12;28.80;52.30
70107;DHT22;57473;37.508;15.080;2022-08-04T19:50:48;28.70;52.50
70107;DHT22;57473;37.508;15.080;2022-08-04T19:53:16;28.70;52.60
70107;DHT22;57473;37.508;15.080;2022-08-04T19:55:52;28.70;52.70
70107;DHT22;57473;37.508;15.080;2022-08-04T19:58:19;28.70;52.50
70107;DHT22;57473;37.508;15.080;2022-08-04T20:00:52;28.60;52.70
70107;DHT22;57473;37.508;15.080;2022-08-04T20:03:21;28.60;52.80
70107;DHT22;57473;37.508;15.080;2022-08-04T20:06:08;28.60;52.70
70107;DHT22;57473;37.508;15.080;2022-08-04T20:08:38;28.60;52.80
70107;DHT22;57473;37.508;15.080;2022-08-04T20:11:15;28.50;52.90
70107;DHT22;57473;37.508;15.080;2022-08-04T20:13:45;28.50;53.10
70107;DHT22;57473;37.508;15.080;2022-08-04T20:16:21;28.50;53.30
70107;DHT22;57473;37.508;15.080;2022-08-04T20:18:57;28.50;53.20
70107;DHT22;57473;37.508;15.080;2022-08-04T20:21:33;28.40;53.30
70107;DHT22;57473;37.508;15.080;2022-08-04T20:24:20;28.40;53.30
70107;DHT22;57473;37.508;15.080;2022-08-04T20:27:06;28.40;53.10
70107;DHT22;57473;37.508;15.080;2022-08-04T20:29:41;28.40;53.20
70107;DHT22;57473;37.508;15.080;2022-08-04T20:32:09;28.40;53.20
70107;DHT22;57473;37.508;15.080;2022-08-04T20:34:37;28.30;53.20
70107;DHT22;57473;37.508;15.080;2022-08-04T20:37:07;28.30;53.30
70107;DHT22;57473;37.508;15.080;2022-08-04T20:39:36;28.30;53.30
70107;DHT22;57473;37.508;15.080;2022-08-04T20:42:04;28.30;53.40
70107;DHT22;57473;37.508;15.080;2022-08-04T20:44:32;28.30;53.40
70107;DHT22;57473;37.508;15.080;2022-08-04T20:47:04;28.30;53.50
70107;DHT22;57473;37.508;15.080;2022-08-04T20:49:33;28.20;53.40
70107;DHT22;57473;37.508;15.080;2022-08-04T20:52:04;28.20;53.60